Stephens, Arkansas
Current Conditions -  °F | °C
As of 12:55 PM on Friday 31 Oct 2014 (Local Time) from KCDH Reporting Station
Clear Clear  
Wind Chill: 68°   Ceiling: Unl
Heat Index: 68°   Visibility: 10mi
Dew Point: 41°   Wind: 12mph
Humidity: 37%   Direction: 10°N
Pressure: 30.2"   Gusts: 21mph
Location:  33.41°N, 93.07°W
Report Text: KCDH 311755Z AUTO 01010G18KT 10SM CLR 20/05 A3020 RMK AO2
Loading
Personal Weather Stations






























Interactive Weather Map
Tropical Storm Tracking
New forecast layout! Learn more

10-Day Weather Forecast

Advertisements
Track Severe Weather on mobile